createdAt,value
2023-03-20T00:00:50.947Z,99.99
2023-03-20T00:01:50.752Z,99.99
2023-03-20T00:02:50.853Z,99.99
2023-03-20T00:03:50.866Z,99.99
2023-03-20T00:04:51.899Z,99.99
2023-03-20T00:05:50.722Z,99.99
2023-03-20T00:06:50.566Z,99.99
2023-03-20T00:07:50.704Z,99.99
2023-03-20T00:08:50.433Z,99.99
2023-03-20T00:09:50.600Z,99.99
2023-03-20T00:10:50.346Z,99.99
2023-03-20T00:11:50.308Z,99.99
2023-03-20T00:12:50.518Z,99.99
2023-03-20T00:13:50.204Z,99.99
2023-03-20T00:14:51.256Z,99.99
2023-03-20T00:15:50.170Z,99.99
2023-03-20T00:16:50.265Z,99.99
2023-03-20T00:17:50.029Z,99.99
2023-03-20T00:18:50.051Z,99.99
2023-03-20T00:19:49.941Z,99.99
2023-03-20T00:20:49.967Z,99.99
2023-03-20T00:21:50.023Z,99.99
2023-03-20T00:22:49.969Z,99.99
2023-03-20T00:23:49.774Z,99.99
2023-03-20T00:24:49.784Z,99.99
2023-03-20T00:25:49.689Z,99.99
2023-03-20T00:26:49.702Z,99.99
2023-03-20T00:27:49.618Z,99.99
2023-03-20T00:28:49.536Z,99.99
2023-03-20T00:29:49.512Z,99.99
2023-03-20T00:30:49.553Z,99.99
2023-03-20T00:31:49.512Z,99.99
2023-03-20T00:32:50.385Z,99.99
2023-03-20T00:33:49.384Z,99.99
2023-03-20T00:34:49.265Z,99.99
2023-03-20T00:35:49.247Z,99.99
2023-03-20T00:36:49.368Z,99.99
2023-03-20T00:37:49.123Z,99.99
2023-03-20T00:38:49.175Z,99.99
2023-03-20T00:39:49.059Z,99.99
2023-03-20T00:40:48.981Z,99.99
2023-03-20T00:41:49.018Z,99.99
2023-03-20T00:42:48.892Z,99.99
2023-03-20T00:43:49.000Z,99.99
2023-03-20T00:44:48.798Z,99.99
2023-03-20T00:45:49.421Z,99.99
2023-03-20T00:46:48.734Z,99.99
2023-03-20T00:47:56.712Z,99.99
2023-03-20T00:48:56.254Z,99.99
2023-03-20T00:49:56.797Z,99.99
2023-03-20T00:50:56.326Z,99.99
2023-03-20T00:51:56.387Z,99.99
2023-03-20T00:52:56.411Z,99.99
2023-03-20T00:55:28.095Z,99.99
2023-03-20T00:56:35.377Z,99.99
2023-03-20T00:57:35.905Z,99.99
2023-03-20T00:58:27.650Z,99.99
2023-03-20T00:59:35.459Z,99.99
2023-03-20T01:00:36.023Z,99.99
2023-03-20T01:01:27.638Z,99.99
2023-03-20T01:02:27.462Z,99.99
2023-03-20T01:03:35.031Z,99.99
2023-03-20T01:04:29.384Z,99.99
2023-03-20T01:05:35.738Z,99.99
2023-03-20T01:06:40.174Z,99.99
2023-03-20T01:07:27.356Z,99.99
2023-03-20T01:08:27.153Z,99.99
2023-03-20T01:09:27.189Z,99.99
2023-03-20T01:10:27.059Z,99.99
2023-03-20T01:11:27.201Z,99.99
2023-03-20T01:12:27.155Z,99.99
2023-03-20T01:13:27.110Z,99.99
2023-03-20T01:14:26.879Z,99.99
2023-03-20T01:15:26.830Z,99.99
2023-03-20T01:16:26.819Z,99.99
2023-03-20T01:17:26.930Z,99.99
2023-03-20T01:18:26.932Z,99.99
2023-03-20T01:19:26.750Z,99.99
2023-03-20T01:20:26.611Z,99.99
2023-03-20T01:21:26.557Z,99.99
2023-03-20T01:22:26.506Z,99.99
2023-03-20T01:23:26.571Z,99.99
2023-03-20T01:24:27.858Z,99.99
2023-03-20T01:25:26.632Z,99.99
2023-03-20T01:26:26.321Z,99.99
2023-03-20T01:27:26.275Z,99.99
2023-03-20T01:28:26.235Z,99.99
2023-03-20T01:29:27.243Z,99.99
2023-03-20T01:30:26.159Z,99.99
2023-03-20T01:31:27.274Z,99.99
2023-03-20T01:32:26.052Z,99.99
2023-03-20T01:33:26.013Z,99.99
2023-03-20T01:34:26.132Z,99.99
2023-03-20T01:35:25.921Z,99.99
2023-03-20T01:36:26.251Z,99.99
2023-03-20T01:37:25.824Z,99.99
2023-03-20T01:38:25.836Z,99.99
2023-03-20T01:39:25.739Z,99.99
2023-03-20T01:40:25.857Z,99.99
2023-03-20T01:41:25.678Z,99.99
2023-03-20T01:42:25.794Z,99.99
2023-03-20T01:43:25.573Z,99.99
2023-03-20T01:44:25.588Z,99.99
2023-03-20T01:45:25.456Z,99.99
2023-03-20T01:46:25.698Z,99.99
2023-03-20T01:47:25.365Z,99.99
2023-03-20T01:48:25.649Z,99.99
2023-03-20T01:49:25.320Z,99.99
2023-03-20T01:50:25.432Z,99.99
2023-03-20T01:51:25.181Z,99.99
2023-03-20T01:52:25.258Z,99.99
2023-03-20T01:53:25.095Z,99.99
2023-03-20T01:54:25.152Z,99.99
2023-03-20T01:55:25.003Z,99.99
2023-03-20T01:56:25.180Z,99.99
2023-03-20T01:57:24.918Z,99.99
2023-03-20T01:58:24.991Z,99.99
2023-03-20T01:59:24.819Z,99.99
2023-03-20T02:00:25.209Z,99.99
2023-03-20T02:01:24.757Z,99.99
2023-03-20T02:02:24.683Z,99.99
2023-03-20T02:03:24.644Z,99.99
2023-03-20T02:04:24.867Z,99.99
2023-03-20T02:05:24.669Z,99.99
2023-03-20T02:06:24.764Z,99.99
2023-03-20T02:07:24.463Z,99.99
2023-03-20T02:08:24.460Z,99.99
2023-03-20T02:09:24.366Z,99.99
2023-03-20T02:10:24.449Z,99.99
2023-03-20T02:11:24.282Z,99.99
2023-03-20T02:12:24.480Z,99.99
2023-03-20T02:13:24.190Z,99.99
2023-03-20T02:14:24.156Z,99.99
2023-03-20T02:15:24.095Z,99.99
2023-03-20T02:16:24.317Z,99.99
2023-03-20T02:17:24.009Z,99.99
2023-03-20T02:18:25.333Z,99.99
2023-03-20T02:19:23.915Z,99.99
2023-03-20T02:20:23.866Z,99.99
2023-03-20T02:21:23.830Z,99.99
2023-03-20T02:22:23.829Z,99.99
2023-03-20T02:23:23.735Z,99.99
2023-03-20T02:24:23.851Z,99.99
2023-03-20T02:25:23.652Z,99.99
2023-03-20T02:26:24.934Z,99.99
2023-03-20T02:27:23.767Z,99.99
2023-03-20T02:28:23.514Z,99.99
2023-03-20T02:29:23.689Z,99.99
2023-03-20T02:30:23.421Z,99.99
2023-03-20T02:31:23.549Z,99.99
2023-03-20T02:32:23.343Z,99.99
2023-03-20T02:33:24.527Z,99.99
2023-03-20T02:34:23.235Z,99.99
2023-03-20T02:35:23.527Z,99.99
2023-03-20T02:36:23.162Z,99.99
2023-03-20T02:37:24.148Z,99.99
2023-03-20T02:38:23.047Z,99.99
2023-03-20T02:39:23.133Z,99.99
2023-03-20T02:40:22.984Z,99.99
2023-03-20T02:41:23.097Z,99.99
2023-03-20T02:42:22.873Z,99.99
2023-03-20T02:43:22.908Z,99.99
2023-03-20T02:44:22.779Z,99.99
2023-03-20T02:45:22.869Z,99.99
2023-03-20T02:46:22.734Z,99.99
2023-03-20T02:47:22.784Z,99.99
2023-03-20T02:48:22.628Z,99.99
2023-03-20T02:49:22.553Z,99.99
2023-03-20T02:50:22.518Z,99.99
2023-03-20T02:51:22.711Z,99.99
2023-03-20T02:52:22.418Z,99.99
2023-03-20T02:53:22.910Z,99.99
2023-03-20T02:54:22.328Z,99.99
2023-03-20T02:55:22.296Z,99.99
2023-03-20T02:56:22.232Z,99.99
2023-03-20T02:57:22.344Z,99.99
2023-03-20T02:58:22.158Z,99.99
2023-03-20T02:59:22.378Z,99.99
2023-03-20T03:00:22.051Z,99.99
2023-03-20T03:01:22.045Z,99.99
2023-03-20T03:02:22.188Z,99.99
2023-03-20T03:03:22.037Z,99.99
2023-03-20T03:04:22.004Z,99.99
2023-03-20T03:05:21.845Z,99.99
2023-03-20T03:06:22.011Z,99.99
2023-03-20T03:07:21.743Z,99.99
2023-03-20T03:08:23.878Z,99.99
2023-03-20T03:09:21.652Z,99.99
2023-03-20T03:10:22.734Z,99.99
2023-03-20T03:11:21.750Z,99.99
2023-03-20T03:12:21.707Z,99.99
2023-03-20T03:13:21.465Z,99.99
2023-03-20T03:14:21.560Z,99.99
2023-03-20T03:15:21.410Z,99.99
2023-03-20T03:16:21.628Z,99.99
2023-03-20T03:17:21.306Z,99.99
2023-03-20T03:18:21.236Z,99.99
2023-03-20T03:19:21.200Z,99.99
2023-03-20T03:20:21.385Z,99.99
2023-03-20T03:21:21.294Z,99.99
2023-03-20T03:22:29.170Z,99.99
2023-03-20T03:23:21.165Z,99.99
2023-03-20T03:24:37.205Z,99.99
2023-03-20T03:25:20.922Z,99.99
2023-03-20T03:26:23.032Z,99.99
2023-03-20T03:27:29.689Z,99.99
2023-03-20T03:28:20.936Z,99.99
2023-03-20T03:29:20.745Z,99.99
2023-03-20T03:30:20.706Z,99.99
2023-03-20T03:31:20.696Z,99.99
2023-03-20T03:32:20.716Z,99.99
2023-03-20T03:33:29.228Z,99.99
2023-03-20T03:34:20.626Z,99.99
2023-03-20T03:35:20.679Z,99.99
2023-03-20T03:36:28.261Z,99.99
2023-03-20T03:37:20.496Z,99.99
2023-03-20T03:38:28.300Z,99.99
2023-03-20T03:39:28.337Z,99.99
2023-03-20T03:40:20.307Z,99.99
2023-03-20T03:41:20.274Z,99.99
2023-03-20T03:42:20.181Z,99.99
2023-03-20T03:43:20.226Z,99.99
2023-03-20T03:44:20.071Z,99.99
2023-03-20T03:45:21.264Z,99.99
2023-03-20T03:46:19.998Z,99.99
2023-03-20T03:47:20.209Z,99.99
2023-03-20T03:48:19.881Z,99.99
2023-03-20T03:49:21.089Z,99.99
2023-03-20T03:50:19.804Z,99.99
2023-03-20T03:51:19.920Z,99.99
2023-03-20T03:52:19.707Z,99.99
2023-03-20T03:53:19.747Z,99.99
2023-03-20T03:54:19.750Z,99.99
2023-03-20T03:55:19.654Z,99.99
2023-03-20T03:56:19.596Z,99.99
2023-03-20T03:57:19.687Z,99.99
2023-03-20T03:58:19.427Z,99.99
2023-03-20T03:59:19.396Z,99.99
2023-03-20T04:00:19.368Z,99.99
2023-03-20T04:01:19.489Z,99.99
2023-03-20T04:02:19.289Z,99.99
2023-03-20T04:03:19.350Z,99.99
2023-03-20T04:04:20.486Z,99.99
2023-03-20T04:05:19.138Z,99.99
2023-03-20T04:06:19.221Z,99.99
2023-03-20T04:07:19.175Z,99.99
2023-03-20T04:08:18.988Z,99.99
2023-03-20T04:09:19.092Z,99.99
2023-03-20T04:10:18.890Z,99.99
2023-03-20T04:11:18.875Z,99.99
2023-03-20T04:12:18.802Z,99.99
2023-03-20T04:13:18.913Z,99.99
2023-03-20T04:14:18.763Z,99.99
2023-03-20T04:15:18.870Z,99.99
2023-03-20T04:16:18.661Z,99.99
2023-03-20T04:17:18.786Z,99.99
2023-03-20T04:18:18.541Z,99.99
2023-03-20T04:19:20.596Z,99.99
2023-03-20T04:20:18.442Z,99.99
2023-03-20T04:21:18.507Z,99.99
2023-03-20T04:22:18.359Z,99.99
2023-03-20T04:23:18.369Z,99.99
2023-03-20T04:24:18.261Z,99.99
2023-03-20T04:25:18.386Z,99.99
2023-03-20T04:26:18.177Z,99.99
2023-03-20T04:27:18.355Z,99.99
2023-03-20T04:28:18.082Z,99.99
2023-03-20T04:29:18.294Z,99.99
2023-03-20T04:30:18.232Z,99.99
2023-03-20T04:31:17.969Z,99.99
2023-03-20T04:32:18.032Z,99.99
2023-03-20T04:33:17.855Z,99.99
2023-03-20T04:34:17.956Z,99.99
2023-03-20T04:35:18.012Z,99.99
2023-03-20T04:36:18.962Z,99.99
2023-03-20T04:37:17.679Z,99.99
2023-03-20T04:38:17.710Z,99.99
2023-03-20T04:39:17.589Z,99.99
2023-03-20T04:40:17.560Z,99.99
2023-03-20T04:41:17.683Z,99.99
2023-03-20T04:42:17.597Z,99.99
2023-03-20T04:43:17.411Z,99.99
2023-03-20T04:44:17.559Z,99.99
2023-03-20T04:45:17.329Z,99.99
2023-03-20T04:46:17.316Z,99.99
2023-03-20T04:47:17.512Z,99.99
2023-03-20T04:48:17.444Z,99.99
2023-03-20T04:49:17.155Z,99.99
2023-03-20T04:50:17.344Z,99.99
2023-03-20T04:51:17.050Z,99.99
2023-03-20T04:52:17.008Z,99.99
2023-03-20T04:53:16.963Z,99.99
2023-03-20T04:54:17.216Z,99.99
2023-03-20T04:55:16.878Z,99.99
2023-03-20T04:56:17.084Z,99.99
2023-03-20T04:57:16.779Z,99.99
2023-03-20T04:58:16.738Z,99.99
2023-03-20T04:59:16.717Z,99.99
2023-03-20T05:00:17.876Z,99.99
2023-03-20T05:01:16.636Z,99.99
2023-03-20T05:02:16.720Z,99.99
2023-03-20T05:03:16.518Z,99.99
2023-03-20T05:04:16.501Z,99.99
2023-03-20T05:05:16.526Z,99.99
2023-03-20T05:06:16.549Z,99.99
2023-03-20T05:07:16.333Z,99.99
2023-03-20T05:08:16.561Z,99.99
2023-03-20T05:09:16.247Z,99.99
2023-03-20T05:10:16.202Z,99.99
2023-03-20T05:11:16.376Z,99.99
2023-03-20T05:12:16.108Z,99.99
2023-03-20T05:13:16.119Z,99.99
2023-03-20T05:14:16.017Z,99.99
2023-03-20T05:15:16.129Z,99.99
2023-03-20T05:16:16.013Z,99.99
2023-03-20T05:17:16.089Z,99.99
2023-03-20T05:18:16.022Z,99.99
2023-03-20T05:19:15.838Z,99.99
2023-03-20T05:20:16.027Z,99.99
2023-03-20T05:21:15.717Z,99.99
2023-03-20T05:22:15.836Z,99.99
2023-03-20T05:23:15.830Z,99.99
2023-03-20T05:24:15.850Z,99.99
2023-03-20T05:25:15.532Z,99.99
2023-03-20T05:26:16.703Z,99.99
2023-03-20T05:27:15.670Z,99.99
2023-03-20T05:28:15.399Z,99.99
2023-03-20T05:29:15.503Z,99.99
2023-03-20T05:30:15.341Z,99.99
2023-03-20T05:31:16.403Z,99.99
2023-03-20T05:32:15.214Z,99.99
2023-03-20T05:33:15.189Z,99.99
2023-03-20T05:34:15.135Z,99.99
2023-03-20T05:35:15.344Z,99.99
2023-03-20T05:36:15.077Z,99.99
2023-03-20T05:37:15.140Z,99.99
2023-03-20T05:38:14.949Z,99.99
2023-03-20T05:39:14.889Z,99.99
2023-03-20T05:40:14.841Z,99.99
2023-03-20T05:41:14.880Z,99.99
2023-03-20T05:42:14.791Z,99.99
2023-03-20T05:43:14.976Z,99.99
2023-03-20T05:44:14.662Z,99.99
2023-03-20T05:45:14.617Z,99.99
2023-03-20T05:46:14.615Z,99.99
2023-03-20T05:47:14.973Z,99.99
2023-03-20T05:48:14.617Z,99.99
2023-03-20T05:49:14.434Z,99.99
2023-03-20T05:50:14.511Z,99.99
2023-03-20T05:51:14.390Z,99.99
2023-03-20T05:52:14.337Z,99.99
2023-03-20T05:53:14.397Z,99.99
2023-03-20T05:54:37.322Z,99.99
2023-03-20T05:55:14.194Z,99.99
2023-03-20T05:56:21.991Z,99.99
2023-03-20T05:57:36.379Z,99.99
2023-03-20T05:58:14.117Z,99.99
2023-03-20T05:59:15.304Z,99.99
2023-03-20T06:03:48.371Z,99.99
2023-03-20T06:04:48.409Z,99.99
2023-03-20T06:06:02.873Z,99.99
2023-03-20T06:06:48.122Z,99.99
2023-03-20T06:08:10.462Z,99.99
2023-03-20T06:08:48.026Z,99.99
2023-03-20T06:09:48.235Z,99.99
2023-03-20T06:10:47.932Z,99.99
2023-03-20T06:11:47.996Z,99.99
2023-03-20T06:12:47.852Z,99.99
2023-03-20T06:13:49.083Z,99.99
2023-03-20T06:14:47.771Z,99.99
2023-03-20T06:15:47.877Z,99.99
2023-03-20T06:16:47.661Z,99.99
2023-03-20T06:17:47.889Z,99.99
2023-03-20T06:18:47.580Z,99.99
2023-03-20T06:19:49.046Z,99.99
2023-03-20T06:20:47.498Z,99.99
2023-03-20T06:21:47.604Z,99.99
2023-03-20T06:22:47.406Z,99.99
2023-03-20T06:23:47.519Z,99.99
2023-03-20T06:24:47.325Z,99.99
2023-03-20T06:25:47.315Z,99.99
2023-03-20T06:26:47.202Z,99.99
2023-03-20T06:27:47.757Z,99.99
2023-03-20T06:28:47.129Z,99.99
2023-03-20T06:29:47.358Z,99.99
2023-03-20T06:30:47.094Z,99.99
2023-03-20T06:31:47.011Z,99.99
2023-03-20T06:32:47.064Z,99.99
2023-03-20T06:33:47.080Z,99.99
2023-03-20T06:34:46.867Z,99.99
2023-03-20T06:35:47.195Z,99.99
2023-03-20T06:36:46.757Z,99.85
2023-03-20T06:37:46.712Z,99.99
2023-03-20T06:38:46.913Z,99.85
2023-03-20T06:39:46.777Z,99.37
2023-03-20T06:40:46.721Z,99.23
2023-03-20T06:41:46.546Z,99.52
2023-03-20T06:42:46.734Z,99.52
2023-03-20T06:43:46.447Z,99.04
2023-03-20T06:44:46.562Z,98.27
2023-03-20T06:45:46.430Z,97.51
2023-03-20T06:46:46.486Z,96.56
2023-03-20T06:47:46.291Z,95.79
2023-03-20T06:48:46.217Z,95.61
2023-03-20T06:49:46.253Z,95.12
2023-03-20T06:50:46.279Z,94.56
2023-03-20T06:51:46.337Z,94.65
2023-03-20T06:52:46.114Z,94.36
2023-03-20T06:53:46.006Z,93.98
2023-03-20T06:54:45.955Z,93.51
2023-03-20T06:55:45.934Z,93.51
2023-03-20T06:56:46.014Z,93.60
2023-03-20T06:57:45.858Z,93.88
2023-03-20T06:58:46.052Z,93.70
2023-03-20T06:59:45.729Z,93.12
2023-03-20T07:00:45.705Z,93.51
2023-03-20T07:01:45.733Z,93.31
2023-03-20T07:02:45.971Z,93.70
2023-03-20T07:03:45.558Z,92.83
2023-03-20T07:04:45.596Z,93.12
2023-03-20T07:05:45.470Z,93.31
2023-03-20T07:06:45.422Z,93.02
2023-03-20T07:07:45.705Z,93.22
2023-03-20T07:08:45.378Z,93.22
2023-03-20T07:09:45.523Z,93.02
2023-03-20T07:10:45.244Z,93.51
2023-03-20T07:11:45.322Z,93.31
2023-03-20T07:12:45.156Z,93.79
2023-03-20T07:13:46.173Z,94.36
2023-03-20T07:14:46.316Z,94.51
2023-03-20T07:16:03.030Z,94.60
2023-03-20T07:16:45.043Z,94.89
2023-03-20T07:17:44.964Z,95.27
2023-03-20T07:18:44.888Z,95.84
2023-03-20T07:19:45.990Z,95.65
2023-03-20T07:20:44.809Z,95.56
2023-03-20T07:21:44.800Z,94.70
2023-03-20T07:22:44.715Z,95.37
2023-03-20T07:23:44.669Z,95.46
2023-03-20T07:24:47.182Z,95.65
2023-03-20T07:25:45.093Z,96.70
2023-03-20T07:26:44.575Z,96.98
2023-03-20T07:27:44.616Z,97.46
2023-03-20T07:28:44.454Z,96.98
2023-03-20T07:29:44.401Z,97.27
2023-03-20T07:30:44.636Z,97.27
2023-03-20T07:31:44.423Z,97.37
2023-03-20T07:32:44.590Z,97.56
2023-03-20T07:33:44.222Z,97.46
2023-03-20T07:34:44.180Z,97.27
2023-03-20T07:35:44.218Z,97.46
2023-03-20T07:36:45.316Z,96.66
2023-03-20T07:37:44.041Z,95.61
2023-03-20T07:38:44.280Z,94.56
2023-03-20T07:39:43.984Z,94.74
2023-03-20T07:40:44.039Z,93.51
2023-03-20T07:41:43.866Z,92.65
2023-03-20T07:42:44.007Z,92.83
2023-03-20T07:43:44.795Z,92.93
2023-03-20T07:44:43.824Z,93.41
2023-03-20T07:45:43.753Z,93.84
2023-03-20T07:46:43.812Z,93.07
2023-03-20T07:47:44.760Z,93.26
2023-03-20T07:48:43.550Z,92.50
2023-03-20T07:49:43.649Z,91.45
2023-03-20T07:50:43.462Z,91.45
2023-03-20T07:51:43.444Z,90.78
2023-03-20T07:52:43.620Z,90.83
2023-03-20T07:53:43.464Z,91.21
2023-03-20T07:54:43.280Z,88.92
2023-03-20T07:55:43.490Z,87.39
2023-03-20T07:56:43.236Z,86.15
2023-03-20T07:57:43.155Z,84.14
2023-03-20T07:58:43.234Z,83.28
2023-03-20T07:59:43.194Z,83.57
2023-03-20T08:00:43.049Z,83.18
2023-03-20T08:01:43.127Z,83.38
2023-03-20T08:02:43.000Z,82.90
2023-03-20T08:03:43.014Z,81.66
2023-03-20T08:04:43.927Z,80.70
2023-03-20T08:05:44.079Z,79.75
2023-03-20T08:06:42.797Z,79.75
2023-03-20T08:07:42.842Z,80.70
2023-03-20T08:08:42.676Z,81.66
2023-03-20T08:09:42.764Z,80.41
2023-03-20T08:10:42.846Z,81.47
2023-03-20T08:11:42.686Z,83.00
2023-03-20T08:12:42.497Z,83.57
2023-03-20T08:13:42.591Z,83.33
2023-03-20T08:14:42.417Z,82.90
2023-03-20T08:15:42.382Z,82.75
2023-03-20T08:16:42.664Z,83.13
2023-03-20T08:17:42.279Z,83.70
2023-03-20T08:18:42.318Z,82.94
2023-03-20T08:19:42.190Z,81.13
2023-03-20T08:20:42.153Z,78.13
2023-03-20T08:21:42.304Z,78.60
2023-03-20T08:22:42.260Z,78.89
2023-03-20T08:23:42.126Z,78.83
2023-03-20T08:24:42.177Z,78.36
2023-03-20T08:25:41.925Z,77.40
2023-03-20T08:26:41.884Z,78.03
2023-03-20T08:27:41.940Z,78.55
2023-03-20T08:28:47.597Z,78.55
2023-03-20T08:29:41.774Z,78.74
2023-03-20T08:30:41.962Z,79.02
2023-03-20T08:31:41.665Z,79.50
2023-03-20T08:32:41.674Z,80.27
2023-03-20T08:33:41.725Z,79.31
2023-03-20T08:34:41.582Z,78.07
2023-03-20T08:35:49.728Z,78.01
2023-03-20T08:36:41.491Z,77.15
2023-03-20T08:37:49.484Z,75.91
2023-03-20T08:38:49.540Z,74.66
2023-03-20T08:39:51.069Z,74.85
2023-03-20T08:40:50.614Z,76.00
2023-03-20T08:41:41.369Z,76.71
2023-03-20T08:42:41.190Z,76.33
2023-03-20T08:43:41.183Z,75.95
2023-03-20T08:44:41.106Z,76.62
2023-03-20T08:45:42.477Z,76.71
2023-03-20T08:46:41.035Z,77.38
2023-03-20T08:47:41.254Z,77.09
2023-03-20T08:48:40.930Z,77.13
2023-03-20T08:49:40.906Z,76.08
2023-03-20T08:50:41.023Z,75.60
2023-03-20T08:51:40.824Z,75.16
2023-03-20T08:52:40.932Z,74.87
2023-03-20T08:53:40.788Z,73.82
2023-03-20T08:54:40.749Z,73.95
2023-03-20T08:55:40.637Z,72.71
2023-03-20T08:56:40.755Z,72.61
2023-03-20T08:57:40.557Z,73.66
2023-03-20T08:58:40.567Z,72.36
2023-03-20T08:59:40.465Z,69.62
2023-03-20T09:00:40.639Z,67.44
2023-03-20T09:01:49.234Z,65.84
2023-03-20T09:02:40.423Z,64.72
2023-03-20T09:03:41.427Z,63.60
2023-03-20T09:04:40.248Z,62.19
2023-03-20T09:05:40.413Z,60.37
2023-03-20T09:06:40.531Z,59.66
2023-03-20T09:07:40.337Z,57.86
2023-03-20T09:08:40.082Z,56.35
2023-03-20T09:09:40.131Z,54.35
2023-03-20T09:10:40.026Z,52.64
2023-03-20T09:11:40.179Z,51.61
2023-03-20T09:12:40.221Z,50.57
2023-03-20T09:13:39.963Z,50.47
2023-03-20T09:14:39.859Z,49.96
2023-03-20T09:15:40.108Z,50.54
2023-03-20T09:16:39.784Z,50.81
2023-03-20T09:17:39.887Z,51.20
2023-03-20T09:18:39.787Z,51.56
2023-03-20T09:19:39.806Z,52.42
2023-03-20T09:20:39.629Z,52.23
2023-03-20T09:21:39.916Z,51.53
2023-03-20T09:22:39.564Z,51.92
2023-03-20T09:23:39.772Z,52.30
2023-03-20T09:24:39.475Z,52.27
2023-03-20T09:25:39.539Z,51.41
2023-03-20T09:26:39.395Z,53.72
2023-03-20T09:27:39.547Z,52.47
2023-03-20T09:28:39.358Z,52.15
2023-03-20T09:29:39.362Z,51.57
2023-03-20T09:30:39.370Z,52.51
2023-03-20T09:31:39.420Z,54.41
2023-03-20T09:32:39.231Z,54.22
2023-03-20T09:33:40.449Z,54.96
2023-03-20T09:34:39.080Z,54.86
2023-03-20T09:35:39.205Z,56.30
2023-03-20T09:36:39.036Z,55.89
2023-03-20T09:37:39.015Z,56.46
2023-03-20T09:38:38.937Z,56.44
2023-03-20T09:39:39.035Z,56.34
2023-03-20T09:40:39.096Z,55.64
2023-03-20T09:41:53.255Z,56.41
2023-03-20T09:42:38.767Z,56.41
2023-03-20T09:43:38.959Z,56.70
2023-03-20T09:44:38.681Z,58.30
2023-03-20T09:45:38.978Z,58.87
2023-03-20T09:46:38.629Z,58.14
2023-03-20T09:47:38.571Z,58.62
2023-03-20T09:48:38.699Z,59.67
2023-03-20T09:49:38.490Z,58.33
2023-03-20T09:50:38.669Z,57.06
2023-03-20T09:51:38.563Z,56.29
2023-03-20T09:52:39.534Z,57.92
2023-03-20T09:53:38.318Z,59.64
2023-03-20T09:54:53.179Z,58.78
2023-03-20T09:55:38.503Z,58.62
2023-03-20T09:56:38.344Z,58.81
2023-03-20T09:57:38.203Z,58.33
2023-03-20T09:58:39.273Z,58.33
2023-03-20T09:59:38.072Z,57.56
2023-03-20T10:00:38.479Z,57.75
2023-03-20T10:01:39.776Z,57.72
2023-03-20T10:02:38.071Z,57.06
2023-03-20T10:03:38.132Z,56.96
2023-03-20T10:04:37.963Z,56.96
2023-03-20T10:05:38.168Z,58.39
2023-03-20T10:06:38.013Z,58.69
2023-03-20T10:07:37.747Z,58.62
2023-03-20T10:08:37.809Z,58.33
2023-03-20T10:09:37.706Z,58.14
2023-03-20T10:10:37.899Z,57.46
2023-03-20T10:11:37.606Z,57.28
2023-03-20T10:12:37.634Z,57.28
2023-03-20T10:13:37.504Z,57.85
2023-03-20T10:14:37.848Z,57.95
2023-03-20T10:15:37.444Z,57.40
2023-03-20T10:16:37.421Z,56.44
2023-03-20T10:17:38.384Z,55.77
2023-03-20T10:18:37.311Z,55.86
2023-03-20T10:19:37.372Z,56.73
2023-03-20T10:20:37.450Z,57.21
2023-03-20T10:21:37.395Z,59.16
2023-03-20T10:22:37.148Z,57.81
2023-03-20T10:23:37.209Z,56.68
2023-03-20T10:24:37.051Z,56.21
2023-03-20T10:25:37.423Z,55.91
2023-03-20T10:26:37.026Z,54.22
2023-03-20T10:27:39.582Z,53.66
2023-03-20T10:28:36.893Z,50.99
2023-03-20T10:29:36.933Z,49.65
2023-03-20T10:30:37.014Z,49.87
2023-03-20T10:31:36.976Z,49.70
2023-03-20T10:32:36.782Z,49.53
2023-03-20T10:33:37.991Z,49.32
2023-03-20T10:34:36.663Z,48.01
2023-03-20T10:35:36.795Z,44.79
2023-03-20T10:36:36.586Z,44.93
2023-03-20T10:37:36.783Z,42.46
2023-03-20T10:38:36.528Z,40.95
2023-03-20T10:39:36.667Z,39.22
2023-03-20T10:40:36.832Z,37.59
2023-03-20T10:41:36.453Z,37.60
2023-03-20T10:42:36.619Z,36.07
2023-03-20T10:43:39.831Z,33.70
2023-03-20T10:44:36.533Z,35.35
2023-03-20T10:45:36.269Z,35.06
2023-03-20T10:46:36.389Z,34.83
2023-03-20T10:47:36.465Z,35.01
2023-03-20T10:48:36.353Z,36.66
2023-03-20T10:49:36.149Z,36.48
2023-03-20T10:50:37.426Z,36.10
2023-03-20T10:51:36.086Z,36.79
2023-03-20T10:52:36.211Z,36.02
2023-03-20T10:53:36.003Z,35.76
2023-03-20T10:54:36.255Z,33.23
2023-03-20T10:55:35.965Z,33.44
2023-03-20T10:56:36.090Z,32.20
2023-03-20T10:57:35.904Z,31.93
2023-03-20T10:58:36.036Z,31.19
2023-03-20T10:59:35.849Z,31.19
2023-03-20T11:00:36.094Z,30.51
2023-03-20T11:01:36.096Z,30.32
2023-03-20T11:02:35.709Z,30.13
2023-03-20T11:05:26.173Z,28.78
2023-03-20T11:06:23.218Z,29.08
2023-03-20T11:07:24.249Z,29.41
2023-03-20T11:08:22.796Z,28.93
2023-03-20T11:10:53.123Z,26.03
2023-03-20T11:12:01.196Z,25.83
2023-03-20T11:13:02.710Z,25.33
2023-03-20T11:14:02.733Z,26.10
2023-03-20T11:15:02.882Z,25.32
2023-03-20T11:15:51.597Z,25.12
2023-03-20T11:16:59.321Z,25.50
2023-03-20T11:18:00.350Z,25.99
2023-03-20T11:18:59.393Z,26.48
2023-03-20T11:20:00.426Z,26.04
2023-03-20T11:21:13.670Z,27.29
2023-03-20T11:21:51.403Z,27.66
2023-03-20T11:22:51.570Z,28.23
2023-03-20T11:23:51.391Z,28.22
2023-03-20T11:24:51.370Z,28.97
2023-03-20T11:25:51.284Z,30.22
2023-03-20T11:26:51.258Z,30.87
2023-03-20T11:27:51.230Z,31.45
2023-03-20T11:28:51.399Z,31.81
2023-03-20T11:29:51.465Z,31.23
2023-03-20T11:31:04.030Z,32.10
2023-03-20T11:31:51.098Z,31.91
2023-03-20T11:32:51.133Z,32.68
2023-03-20T11:33:51.026Z,32.18
2023-03-20T11:34:51.040Z,33.34
2023-03-20T11:35:50.975Z,33.06
2023-03-20T11:37:02.652Z,32.36
2023-03-20T11:37:50.881Z,32.57
2023-03-20T11:38:50.859Z,33.54
2023-03-20T11:39:50.810Z,32.96
2023-03-20T11:40:50.999Z,32.39
2023-03-20T11:41:50.831Z,31.60
2023-03-20T11:42:50.782Z,31.89
2023-03-20T11:43:50.662Z,32.76
2023-03-20T11:44:50.631Z,32.67
2023-03-20T11:45:50.691Z,33.15
2023-03-20T11:46:50.810Z,33.34
2023-03-20T11:47:50.520Z,33.06
2023-03-20T11:48:50.725Z,32.76
2023-03-20T11:49:50.650Z,34.22
2023-03-20T11:50:50.412Z,33.54
2023-03-20T11:51:50.369Z,33.91
2023-03-20T11:52:50.563Z,33.33
2023-03-20T11:53:50.304Z,33.91
2023-03-20T11:54:50.363Z,33.89
2023-03-20T11:55:50.255Z,33.57
2023-03-20T11:56:50.196Z,34.73
2023-03-20T11:57:50.156Z,35.68
2023-03-20T11:58:50.389Z,35.86
2023-03-20T11:59:50.445Z,36.24
2023-03-20T12:00:50.198Z,35.84
2023-03-20T12:01:50.036Z,36.03
2023-03-20T12:02:50.168Z,36.22
2023-03-20T12:03:50.173Z,36.98
2023-03-20T12:04:49.902Z,36.98
2023-03-20T12:05:50.146Z,37.15
2023-03-20T12:06:49.835Z,37.35
2023-03-20T12:07:49.946Z,37.83
2023-03-20T12:08:49.766Z,37.83
2023-03-20T12:09:49.965Z,38.39
2023-03-20T12:10:49.682Z,39.24
2023-03-20T12:11:50.117Z,39.91
2023-03-20T12:12:49.603Z,40.19
2023-03-20T12:13:49.893Z,41.03
2023-03-20T12:14:50.777Z,40.74
2023-03-20T12:15:49.731Z,41.61
2023-03-20T12:16:49.460Z,41.80
2023-03-20T12:17:49.531Z,41.41
2023-03-20T12:18:49.381Z,41.34
2023-03-20T12:19:49.429Z,42.11
2023-03-20T12:20:49.352Z,42.30
2023-03-20T12:21:50.467Z,41.80
2023-03-20T12:22:49.224Z,41.80
2023-03-20T12:23:49.519Z,41.80
2023-03-20T12:24:49.158Z,41.71
2023-03-20T12:25:49.378Z,41.61
2023-03-20T12:26:49.223Z,42.19
2023-03-20T12:27:49.197Z,41.99
2023-03-20T12:28:48.984Z,41.32
2023-03-20T12:29:49.198Z,41.32
2023-03-20T12:30:48.933Z,41.80
2023-03-20T12:31:48.909Z,41.80
2023-03-20T12:32:48.891Z,41.80
2023-03-20T12:33:49.017Z,41.78
2023-03-20T12:34:48.778Z,41.97
2023-03-20T12:35:48.842Z,41.88
2023-03-20T12:36:48.691Z,41.49
2023-03-20T12:37:48.889Z,41.88
2023-03-20T12:38:48.601Z,41.32
2023-03-20T12:39:48.648Z,42.02
2023-03-20T12:40:48.522Z,42.11
2023-03-20T12:41:48.661Z,41.65
2023-03-20T12:42:48.447Z,40.22
2023-03-20T12:43:48.468Z,39.74
2023-03-20T12:44:48.370Z,38.60
2023-03-20T12:45:48.611Z,38.53
2023-03-20T12:46:48.394Z,38.35
2023-03-20T12:47:48.805Z,37.48
2023-03-20T12:48:48.215Z,36.72
2023-03-20T12:49:48.182Z,35.64
2023-03-20T12:50:48.162Z,35.55
2023-03-20T12:51:48.332Z,36.13
2023-03-20T12:52:48.066Z,36.32
2023-03-20T12:53:48.235Z,35.45
2023-03-20T12:54:47.990Z,35.34
2023-03-20T12:55:47.957Z,35.53
2023-03-20T12:56:47.926Z,35.63
2023-03-20T12:57:48.167Z,36.00
2023-03-20T12:58:47.843Z,37.25
2023-03-20T12:59:48.081Z,37.06
2023-03-20T13:00:47.769Z,37.15